sensor_id;sensor_type;location;lat;lon;timestamp;noise_LAeq;noise_LA_min;noise_LA_max;noise_LA01;noise_LA95
70454;Laerm;57915;47.174;14.680;2024-03-06T00:00:39;31.77;29.42;36.00;;
70454;Laerm;57915;47.174;14.680;2024-03-06T00:01:41;31.13;29.08;34.41;;
70454;Laerm;57915;47.174;14.680;2024-03-06T00:02:42;30.63;29.17;38.41;;
70454;Laerm;57915;47.174;14.680;2024-03-06T00:03:43;31.35;29.28;35.45;;
70454;Laerm;57915;47.174;14.680;2024-03-06T00:04:43;37.13;31.35;46.43;;
70454;Laerm;57915;47.174;14.680;2024-03-06T00:05:45;40.41;35.34;46.34;;
70454;Laerm;57915;47.174;14.680;2024-03-06T00:06:45;36.05;30.32;44.85;;
70454;Laerm;57915;47.174;14.680;2024-03-06T00:07:47;32.13;30.38;34.45;;
70454;Laerm;57915;47.174;14.680;2024-03-06T00:08:47;32.50;30.74;39.88;;
70454;Laerm;57915;47.174;14.680;2024-03-06T00:09:49;53.70;30.76;66.71;;
70454;Laerm;57915;47.174;14.680;2024-03-06T00:10:49;32.80;31.06;36.60;;
70454;Laerm;57915;47.174;14.680;2024-03-06T00:11:50;32.77;31.01;35.07;;
70454;Laerm;57915;47.174;14.680;2024-03-06T00:12:53;32.78;30.94;37.21;;
70454;Laerm;57915;47.174;14.680;2024-03-06T00:13:54;33.33;31.32;37.53;;
70454;Laerm;57915;47.174;14.680;2024-03-06T00:14:55;34.17;31.24;44.50;;
70454;Laerm;57915;47.174;14.680;2024-03-06T00:15:56;33.12;31.28;35.80;;
70454;Laerm;57915;47.174;14.680;2024-03-06T00:16:57;33.35;31.49;35.33;;
70454;Laerm;57915;47.174;14.680;2024-03-06T00:17:58;35.20;31.85;48.34;;
70454;Laerm;57915;47.174;14.680;2024-03-06T00:18:59;34.24;32.01;38.07;;
70454;Laerm;57915;47.174;14.680;2024-03-06T00:20:00;34.23;31.78;37.42;;
70454;Laerm;57915;47.174;14.680;2024-03-06T00:21:05;33.44;31.08;39.05;;
70454;Laerm;57915;47.174;14.680;2024-03-06T00:22:05;32.95;30.69;34.74;;
70454;Laerm;57915;47.174;14.680;2024-03-06T00:23:07;32.41;30.54;34.60;;
70454;Laerm;57915;47.174;14.680;2024-03-06T00:24:07;32.56;30.49;35.40;;
70454;Laerm;57915;47.174;14.680;2024-03-06T00:25:08;32.06;30.25;34.56;;
70454;Laerm;57915;47.174;14.680;2024-03-06T00:26:09;31.88;30.15;35.84;;
70454;Laerm;57915;47.174;14.680;2024-03-06T00:27:10;31.70;29.48;37.97;;
70454;Laerm;57915;47.174;14.680;2024-03-06T00:28:13;32.00;29.98;37.66;;
70454;Laerm;57915;47.174;14.680;2024-03-06T00:29:13;31.66;30.03;34.41;;
70454;Laerm;57915;47.174;14.680;2024-03-06T00:30:15;31.84;30.17;34.93;;
70454;Laerm;57915;47.174;14.680;2024-03-06T00:31:15;32.15;30.16;34.47;;
70454;Laerm;57915;47.174;14.680;2024-03-06T00:32:18;32.86;30.81;35.43;;
70454;Laerm;57915;47.174;14.680;2024-03-06T00:33:18;33.07;30.98;36.38;;
70454;Laerm;57915;47.174;14.680;2024-03-06T00:34:19;55.97;30.81;68.86;;
70454;Laerm;57915;47.174;14.680;2024-03-06T00:35:20;50.95;31.00;66.24;;
70454;Laerm;57915;47.174;14.680;2024-03-06T00:36:21;51.24;30.85;66.69;;
70454;Laerm;57915;47.174;14.680;2024-03-06T00:37:22;32.86;30.80;35.00;;
70454;Laerm;57915;47.174;14.680;2024-03-06T00:38:24;32.90;31.10;35.47;;
70454;Laerm;57915;47.174;14.680;2024-03-06T00:39:24;32.59;30.63;35.92;;
70454;Laerm;57915;47.174;14.680;2024-03-06T00:40:26;32.03;30.30;34.38;;
70454;Laerm;57915;47.174;14.680;2024-03-06T00:41:26;32.00;30.14;34.69;;
70454;Laerm;57915;47.174;14.680;2024-03-06T00:42:28;31.84;30.31;34.05;;
70454;Laerm;57915;47.174;14.680;2024-03-06T00:43:29;31.59;30.00;34.90;;
70454;Laerm;57915;47.174;14.680;2024-03-06T00:44:31;58.12;30.00;71.76;;
70454;Laerm;57915;47.174;14.680;2024-03-06T00:45:31;31.61;29.58;37.10;;
70454;Laerm;57915;47.174;14.680;2024-03-06T00:46:33;31.05;29.31;33.94;;
70454;Laerm;57915;47.174;14.680;2024-03-06T00:47:33;31.09;29.28;33.32;;
70454;Laerm;57915;47.174;14.680;2024-03-06T00:48:35;30.94;29.32;34.47;;
70454;Laerm;57915;47.174;14.680;2024-03-06T00:49:36;31.10;29.43;45.98;;
70454;Laerm;57915;47.174;14.680;2024-03-06T00:50:37;54.55;29.49;67.53;;
70454;Laerm;57915;47.174;14.680;2024-03-06T00:51:38;30.81;29.44;34.87;;
70454;Laerm;57915;47.174;14.680;2024-03-06T00:52:39;30.79;29.40;34.11;;
70454;Laerm;57915;47.174;14.680;2024-03-06T00:53:39;30.85;29.30;34.09;;
70454;Laerm;57915;47.174;14.680;2024-03-06T00:54:41;30.92;29.01;33.93;;
70454;Laerm;57915;47.174;14.680;2024-03-06T00:55:41;31.09;29.34;34.33;;
70454;Laerm;57915;47.174;14.680;2024-03-06T00:56:43;31.07;29.30;33.84;;
70454;Laerm;57915;47.174;14.680;2024-03-06T00:57:43;31.04;29.46;33.93;;
70454;Laerm;57915;47.174;14.680;2024-03-06T00:58:46;31.59;29.34;35.39;;
70454;Laerm;57915;47.174;14.680;2024-03-06T00:59:47;31.02;29.52;34.14;;
70454;Laerm;57915;47.174;14.680;2024-03-06T01:00:48;31.68;29.35;37.30;;
70454;Laerm;57915;47.174;14.680;2024-03-06T01:01:49;32.31;29.38;47.35;;
70454;Laerm;57915;47.174;14.680;2024-03-06T01:02:50;30.99;29.16;34.22;;
70454;Laerm;57915;47.174;14.680;2024-03-06T01:03:51;31.31;29.88;33.44;;
70454;Laerm;57915;47.174;14.680;2024-03-06T01:04:51;32.66;30.17;42.20;;
70454;Laerm;57915;47.174;14.680;2024-03-06T01:05:53;32.06;30.29;34.50;;
70454;Laerm;57915;47.174;14.680;2024-03-06T01:06:53;44.38;31.81;52.43;;
70454;Laerm;57915;47.174;14.680;2024-03-06T01:07:56;40.90;35.09;48.72;;
70454;Laerm;57915;47.174;14.680;2024-03-06T01:08:57;34.36;30.98;38.63;;
70454;Laerm;57915;47.174;14.680;2024-03-06T01:09:58;33.42;31.16;41.89;;
70454;Laerm;57915;47.174;14.680;2024-03-06T01:10:59;55.67;31.42;68.67;;
70454;Laerm;57915;47.174;14.680;2024-03-06T01:12:00;33.20;31.07;36.53;;
70454;Laerm;57915;47.174;14.680;2024-03-06T01:13:01;33.57;31.34;36.94;;
70454;Laerm;57915;47.174;14.680;2024-03-06T01:14:03;33.44;31.35;36.62;;
70454;Laerm;57915;47.174;14.680;2024-03-06T01:15:05;33.46;31.34;38.16;;
70454;Laerm;57915;47.174;14.680;2024-03-06T01:16:07;33.43;31.39;39.34;;
70454;Laerm;57915;47.174;14.680;2024-03-06T01:17:08;33.45;31.32;43.41;;
70454;Laerm;57915;47.174;14.680;2024-03-06T01:18:09;38.21;31.30;47.29;;
70454;Laerm;57915;47.174;14.680;2024-03-06T01:19:10;41.62;32.59;52.73;;
70454;Laerm;57915;47.174;14.680;2024-03-06T01:20:11;36.32;31.85;43.31;;
70454;Laerm;57915;47.174;14.680;2024-03-06T01:21:12;33.87;31.75;36.36;;
70454;Laerm;57915;47.174;14.680;2024-03-06T01:22:12;33.28;31.50;37.21;;
70454;Laerm;57915;47.174;14.680;2024-03-06T01:23:14;34.12;31.31;38.25;;
70454;Laerm;57915;47.174;14.680;2024-03-06T01:24:14;33.97;31.84;40.17;;
70454;Laerm;57915;47.174;14.680;2024-03-06T01:25:16;33.63;31.14;36.52;;
70454;Laerm;57915;47.174;14.680;2024-03-06T01:26:16;33.53;31.35;36.27;;
70454;Laerm;57915;47.174;14.680;2024-03-06T01:27:18;34.36;32.21;38.30;;
70454;Laerm;57915;47.174;14.680;2024-03-06T01:28:18;34.00;31.76;36.94;;
70454;Laerm;57915;47.174;14.680;2024-03-06T01:29:20;33.89;31.47;37.32;;
70454;Laerm;57915;47.174;14.680;2024-03-06T01:30:22;33.92;31.88;38.59;;
70454;Laerm;57915;47.174;14.680;2024-03-06T01:31:22;34.27;31.76;39.16;;
70454;Laerm;57915;47.174;14.680;2024-03-06T01:32:23;43.28;32.91;54.76;;
70454;Laerm;57915;47.174;14.680;2024-03-06T01:33:24;38.03;32.27;44.58;;
70454;Laerm;57915;47.174;14.680;2024-03-06T01:34:25;33.24;30.75;38.80;;
70454;Laerm;57915;47.174;14.680;2024-03-06T01:35:26;32.35;30.35;35.38;;
70454;Laerm;57915;47.174;14.680;2024-03-06T01:36:27;31.21;29.52;40.11;;
70454;Laerm;57915;47.174;14.680;2024-03-06T01:37:28;30.96;29.55;33.68;;
70454;Laerm;57915;47.174;14.680;2024-03-06T01:38:29;31.12;29.22;33.80;;
70454;Laerm;57915;47.174;14.680;2024-03-06T01:39:30;32.19;30.10;37.74;;
70454;Laerm;57915;47.174;14.680;2024-03-06T01:40:31;32.22;30.37;39.42;;
70454;Laerm;57915;47.174;14.680;2024-03-06T01:41:32;34.08;30.38;37.93;;
70454;Laerm;57915;47.174;14.680;2024-03-06T01:42:33;37.72;31.03;47.22;;
70454;Laerm;57915;47.174;14.680;2024-03-06T01:43:37;33.46;30.62;36.59;;
70454;Laerm;57915;47.174;14.680;2024-03-06T01:44:40;48.88;29.62;65.25;;
70454;Laerm;57915;47.174;14.680;2024-03-06T01:45:40;54.40;29.63;70.10;;
70454;Laerm;57915;47.174;14.680;2024-03-06T01:46:42;31.09;29.29;33.67;;
70454;Laerm;57915;47.174;14.680;2024-03-06T01:47:42;30.63;29.02;40.39;;
70454;Laerm;57915;47.174;14.680;2024-03-06T01:48:44;56.03;29.09;69.90;;
70454;Laerm;57915;47.174;14.680;2024-03-06T01:49:44;31.76;29.07;39.36;;
70454;Laerm;57915;47.174;14.680;2024-03-06T01:50:47;30.47;29.01;33.23;;
70454;Laerm;57915;47.174;14.680;2024-03-06T01:51:48;30.39;28.91;34.00;;
70454;Laerm;57915;47.174;14.680;2024-03-06T01:52:50;32.06;30.08;34.94;;
70454;Laerm;57915;47.174;14.680;2024-03-06T01:53:51;33.44;29.18;37.08;;
70454;Laerm;57915;47.174;14.680;2024-03-06T01:54:53;30.34;28.79;32.50;;
70454;Laerm;57915;47.174;14.680;2024-03-06T01:55:54;30.14;28.27;35.26;;
70454;Laerm;57915;47.174;14.680;2024-03-06T01:56:55;30.15;28.71;32.64;;
70454;Laerm;57915;47.174;14.680;2024-03-06T01:57:57;30.11;28.68;35.77;;
70454;Laerm;57915;47.174;14.680;2024-03-06T01:58:59;29.85;28.56;32.70;;
70454;Laerm;57915;47.174;14.680;2024-03-06T02:00:01;30.07;28.72;36.71;;
70454;Laerm;57915;47.174;14.680;2024-03-06T02:01:04;52.44;28.61;64.73;;
70454;Laerm;57915;47.174;14.680;2024-03-06T02:02:05;54.64;28.65;67.50;;
70454;Laerm;57915;47.174;14.680;2024-03-06T02:03:07;30.05;28.75;34.49;;
70454;Laerm;57915;47.174;14.680;2024-03-06T02:04:09;30.20;28.80;34.74;;
70454;Laerm;57915;47.174;14.680;2024-03-06T02:05:09;30.79;28.95;33.45;;
70454;Laerm;57915;47.174;14.680;2024-03-06T02:06:11;32.76;28.89;38.88;;
70454;Laerm;57915;47.174;14.680;2024-03-06T02:07:12;34.50;31.61;38.90;;
70454;Laerm;57915;47.174;14.680;2024-03-06T02:08:15;33.31;29.37;38.74;;
70454;Laerm;57915;47.174;14.680;2024-03-06T02:09:16;30.28;28.75;32.54;;
70454;Laerm;57915;47.174;14.680;2024-03-06T02:10:19;30.01;28.77;33.38;;
70454;Laerm;57915;47.174;14.680;2024-03-06T02:11:19;30.13;28.76;33.87;;
70454;Laerm;57915;47.174;14.680;2024-03-06T02:12:21;30.30;28.84;34.61;;
70454;Laerm;57915;47.174;14.680;2024-03-06T02:13:21;32.47;29.05;37.87;;
70454;Laerm;57915;47.174;14.680;2024-03-06T02:14:23;34.19;30.73;37.75;;
70454;Laerm;57915;47.174;14.680;2024-03-06T02:15:25;31.82;29.30;38.40;;
70454;Laerm;57915;47.174;14.680;2024-03-06T02:16:27;30.96;28.87;34.65;;
70454;Laerm;57915;47.174;14.680;2024-03-06T02:17:27;30.38;29.05;37.42;;
70454;Laerm;57915;47.174;14.680;2024-03-06T02:18:29;30.16;28.72;34.07;;
70454;Laerm;57915;47.174;14.680;2024-03-06T02:19:39;51.22;29.00;63.18;;
70454;Laerm;57915;47.174;14.680;2024-03-06T02:20:42;30.94;29.23;34.23;;
70454;Laerm;57915;47.174;14.680;2024-03-06T02:21:42;30.75;29.08;33.40;;
70454;Laerm;57915;47.174;14.680;2024-03-06T02:22:44;30.82;29.39;33.05;;
70454;Laerm;57915;47.174;14.680;2024-03-06T02:23:44;30.90;29.19;34.94;;
70454;Laerm;57915;47.174;14.680;2024-03-06T02:24:47;50.23;29.58;65.19;;
70454;Laerm;57915;47.174;14.680;2024-03-06T02:25:48;42.12;29.72;57.41;;
70454;Laerm;57915;47.174;14.680;2024-03-06T02:26:50;30.57;28.78;35.27;;
70454;Laerm;57915;47.174;14.680;2024-03-06T02:27:50;30.13;28.65;34.58;;
70454;Laerm;57915;47.174;14.680;2024-03-06T02:28:52;30.14;28.59;34.50;;
70454;Laerm;57915;47.174;14.680;2024-03-06T02:29:53;30.78;29.06;35.33;;
70454;Laerm;57915;47.174;14.680;2024-03-06T02:30:54;30.23;28.62;33.17;;
70454;Laerm;57915;47.174;14.680;2024-03-06T02:31:55;30.15;28.69;33.83;;
70454;Laerm;57915;47.174;14.680;2024-03-06T02:32:56;30.14;28.58;33.90;;
70454;Laerm;57915;47.174;14.680;2024-03-06T02:33:57;30.40;29.01;35.06;;
70454;Laerm;57915;47.174;14.680;2024-03-06T02:35:00;30.61;29.00;34.35;;
70454;Laerm;57915;47.174;14.680;2024-03-06T02:36:03;30.44;29.10;33.85;;
70454;Laerm;57915;47.174;14.680;2024-03-06T02:37:05;30.49;28.76;35.30;;
70454;Laerm;57915;47.174;14.680;2024-03-06T02:38:06;30.54;29.17;34.90;;
70454;Laerm;57915;47.174;14.680;2024-03-06T02:39:07;32.04;29.16;40.23;;
70454;Laerm;57915;47.174;14.680;2024-03-06T02:40:09;59.86;33.57;70.70;;
70454;Laerm;57915;47.174;14.680;2024-03-06T02:41:11;30.79;29.13;35.06;;
70454;Laerm;57915;47.174;14.680;2024-03-06T02:42:14;30.67;28.94;35.54;;
70454;Laerm;57915;47.174;14.680;2024-03-06T02:43:14;30.90;29.02;33.49;;
70454;Laerm;57915;47.174;14.680;2024-03-06T02:44:16;33.17;30.23;35.84;;
70454;Laerm;57915;47.174;14.680;2024-03-06T02:45:17;41.99;30.67;58.05;;
70454;Laerm;57915;47.174;14.680;2024-03-06T02:46:18;56.74;29.80;70.03;;
70454;Laerm;57915;47.174;14.680;2024-03-06T02:47:19;30.93;29.24;33.53;;
70454;Laerm;57915;47.174;14.680;2024-03-06T02:48:19;56.04;29.20;69.80;;
70454;Laerm;57915;47.174;14.680;2024-03-06T02:49:21;31.62;29.75;34.52;;
70454;Laerm;57915;47.174;14.680;2024-03-06T02:50:21;31.87;29.22;40.82;;
70454;Laerm;57915;47.174;14.680;2024-03-06T02:51:25;32.56;30.19;39.17;;
70454;Laerm;57915;47.174;14.680;2024-03-06T02:52:25;55.67;30.11;68.88;;
70454;Laerm;57915;47.174;14.680;2024-03-06T02:53:26;31.48;29.85;38.12;;
70454;Laerm;57915;47.174;14.680;2024-03-06T02:54:27;55.25;29.89;68.76;;
70454;Laerm;57915;47.174;14.680;2024-03-06T02:55:29;33.40;29.61;46.06;;
70454;Laerm;57915;47.174;14.680;2024-03-06T02:56:30;54.42;29.15;67.45;;
70454;Laerm;57915;47.174;14.680;2024-03-06T02:57:30;35.26;30.85;41.00;;
70454;Laerm;57915;47.174;14.680;2024-03-06T02:58:32;34.07;30.25;38.54;;
70454;Laerm;57915;47.174;14.680;2024-03-06T02:59:32;32.12;30.32;38.61;;
70454;Laerm;57915;47.174;14.680;2024-03-06T03:00:33;31.74;29.65;34.89;;
70454;Laerm;57915;47.174;14.680;2024-03-06T03:01:34;32.95;30.32;45.71;;
70454;Laerm;57915;47.174;14.680;2024-03-06T03:02:35;35.14;30.73;45.20;;
70454;Laerm;57915;47.174;14.680;2024-03-06T03:03:36;36.16;30.26;57.13;;
70454;Laerm;57915;47.174;14.680;2024-03-06T03:04:36;55.73;31.15;70.85;;
70454;Laerm;57915;47.174;14.680;2024-03-06T03:05:38;49.90;31.36;68.38;;
70454;Laerm;57915;47.174;14.680;2024-03-06T03:06:40;43.91;32.57;60.46;;
70454;Laerm;57915;47.174;14.680;2024-03-06T03:07:42;39.20;31.42;55.45;;
70454;Laerm;57915;47.174;14.680;2024-03-06T03:08:42;54.35;32.68;67.26;;
70454;Laerm;57915;47.174;14.680;2024-03-06T03:09:44;58.07;31.20;72.22;;
70454;Laerm;57915;47.174;14.680;2024-03-06T03:10:44;59.89;30.72;73.68;;
70454;Laerm;57915;47.174;14.680;2024-03-06T03:11:46;42.34;30.89;63.91;;
70454;Laerm;57915;47.174;14.680;2024-03-06T03:12:46;56.20;33.38;69.84;;
70454;Laerm;57915;47.174;14.680;2024-03-06T03:13:48;58.65;34.31;68.46;;
70454;Laerm;57915;47.174;14.680;2024-03-06T03:14:48;57.91;32.27;70.87;;
70454;Laerm;57915;47.174;14.680;2024-03-06T03:15:50;34.59;31.19;44.63;;
70454;Laerm;57915;47.174;14.680;2024-03-06T03:16:51;54.50;31.30;68.15;;
70454;Laerm;57915;47.174;14.680;2024-03-06T03:17:53;34.87;29.94;46.25;;
70454;Laerm;57915;47.174;14.680;2024-03-06T03:18:54;35.32;30.19;46.61;;
70454;Laerm;57915;47.174;14.680;2024-03-06T03:19:55;57.15;30.57;71.05;;
70454;Laerm;57915;47.174;14.680;2024-03-06T03:20:56;36.35;30.28;59.92;;
70454;Laerm;57915;47.174;14.680;2024-03-06T03:21:58;36.59;30.27;52.52;;
70454;Laerm;57915;47.174;14.680;2024-03-06T03:22:59;47.00;31.68;58.29;;
70454;Laerm;57915;47.174;14.680;2024-03-06T03:24:01;38.92;30.62;55.48;;
70454;Laerm;57915;47.174;14.680;2024-03-06T03:25:01;39.04;30.18;54.03;;
70454;Laerm;57915;47.174;14.680;2024-03-06T03:26:03;37.40;30.26;52.33;;
70454;Laerm;57915;47.174;14.680;2024-03-06T03:27:04;57.21;30.88;70.90;;
70454;Laerm;57915;47.174;14.680;2024-03-06T03:28:06;38.65;30.30;54.38;;
70454;Laerm;57915;47.174;14.680;2024-03-06T03:29:07;56.60;31.25;70.65;;
70454;Laerm;57915;47.174;14.680;2024-03-06T03:30:08;39.02;31.16;54.51;;
70454;Laerm;57915;47.174;14.680;2024-03-06T03:31:09;39.28;31.22;52.54;;
70454;Laerm;57915;47.174;14.680;2024-03-06T03:32:11;55.98;31.07;68.52;;
70454;Laerm;57915;47.174;14.680;2024-03-06T03:33:11;38.40;30.35;56.43;;
70454;Laerm;57915;47.174;14.680;2024-03-06T03:34:13;54.44;30.33;68.55;;
70454;Laerm;57915;47.174;14.680;2024-03-06T03:35:13;60.33;40.22;69.36;;
70454;Laerm;57915;47.174;14.680;2024-03-06T03:36:16;56.93;40.92;66.38;;
70454;Laerm;57915;47.174;14.680;2024-03-06T03:37:18;56.72;33.32;67.53;;
70454;Laerm;57915;47.174;14.680;2024-03-06T03:38:19;45.84;29.40;57.08;;
70454;Laerm;57915;47.174;14.680;2024-03-06T03:39:19;57.04;29.99;70.44;;
70454;Laerm;57915;47.174;14.680;2024-03-06T03:40:24;52.55;31.02;65.11;;
70454;Laerm;57915;47.174;14.680;2024-03-06T03:41:24;37.73;29.61;52.31;;
70454;Laerm;57915;47.174;14.680;2024-03-06T03:42:26;38.90;29.68;52.51;;
70454;Laerm;57915;47.174;14.680;2024-03-06T03:43:27;52.14;33.64;61.30;;
70454;Laerm;57915;47.174;14.680;2024-03-06T03:44:28;58.70;33.11;72.26;;
70454;Laerm;57915;47.174;14.680;2024-03-06T03:45:29;51.37;31.22;67.57;;
70454;Laerm;57915;47.174;14.680;2024-03-06T03:46:30;60.13;33.56;72.41;;
70454;Laerm;57915;47.174;14.680;2024-03-06T03:47:30;55.78;30.54;69.18;;
70454;Laerm;57915;47.174;14.680;2024-03-06T03:48:32;58.83;33.32;70.12;;
70454;Laerm;57915;47.174;14.680;2024-03-06T03:49:35;58.08;31.81;68.45;;
70454;Laerm;57915;47.174;14.680;2024-03-06T03:50:36;33.40;29.38;45.74;;
70454;Laerm;57915;47.174;14.680;2024-03-06T03:51:38;43.28;29.45;65.97;;
70454;Laerm;57915;47.174;14.680;2024-03-06T03:52:40;51.20;30.04;63.72;;
70454;Laerm;57915;47.174;14.680;2024-03-06T03:53:42;39.27;34.84;45.59;;
70454;Laerm;57915;47.174;14.680;2024-03-06T03:54:43;52.12;32.78;65.64;;
70454;Laerm;57915;47.174;14.680;2024-03-06T03:55:44;51.94;31.70;67.45;;
70454;Laerm;57915;47.174;14.680;2024-03-06T03:56:44;51.69;30.00;63.52;;
70454;Laerm;57915;47.174;14.680;2024-03-06T03:57:46;31.52;29.47;35.61;;
70454;Laerm;57915;47.174;14.680;2024-03-06T03:58:46;53.49;29.48;65.80;;
70454;Laerm;57915;47.174;14.680;2024-03-06T03:59:48;33.77;29.24;44.22;;
70454;Laerm;57915;47.174;14.680;2024-03-06T04:00:48;57.48;30.65;69.34;;
70454;Laerm;57915;47.174;14.680;2024-03-06T04:01:52;36.44;29.87;48.72;;
70454;Laerm;57915;47.174;14.680;2024-03-06T04:02:53;51.09;31.78;63.62;;
70454;Laerm;57915;47.174;14.680;2024-03-06T04:03:54;57.04;30.59;69.84;;
70454;Laerm;57915;47.174;14.680;2024-03-06T04:04:55;56.28;31.42;70.65;;
70454;Laerm;57915;47.174;14.680;2024-03-06T04:05:56;56.80;31.49;70.69;;
70454;Laerm;57915;47.174;14.680;2024-03-06T04:06:57;34.71;31.51;44.79;;
70454;Laerm;57915;47.174;14.680;2024-03-06T04:08:03;55.49;31.74;67.29;;
70454;Laerm;57915;47.174;14.680;2024-03-06T04:09:06;40.31;30.99;53.55;;
70454;Laerm;57915;47.174;14.680;2024-03-06T04:10:10;34.23;30.25;45.07;;
70454;Laerm;57915;47.174;14.680;2024-03-06T04:11:11;35.62;30.59;52.86;;
70454;Laerm;57915;47.174;14.680;2024-03-06T04:12:12;55.12;32.34;68.52;;
70454;Laerm;57915;47.174;14.680;2024-03-06T04:13:14;62.77;44.67;72.02;;
70454;Laerm;57915;47.174;14.680;2024-03-06T04:14:16;43.24;31.95;52.27;;
70454;Laerm;57915;47.174;14.680;2024-03-06T04:15:16;54.34;31.37;67.49;;
70454;Laerm;57915;47.174;14.680;2024-03-06T04:16:17;58.42;35.36;72.13;;
70454;Laerm;57915;47.174;14.680;2024-03-06T04:17:18;62.09;34.19;73.58;;
70454;Laerm;57915;47.174;14.680;2024-03-06T04:18:19;61.58;35.99;72.75;;
70454;Laerm;57915;47.174;14.680;2024-03-06T04:19:20;52.65;32.59;66.61;;
70454;Laerm;57915;47.174;14.680;2024-03-06T04:20:21;56.72;32.63;66.34;;
70454;Laerm;57915;47.174;14.680;2024-03-06T04:21:22;56.30;34.07;69.55;;
70454;Laerm;57915;47.174;14.680;2024-03-06T04:22:23;63.37;42.27;75.45;;
70454;Laerm;57915;47.174;14.680;2024-03-06T04:23:26;59.18;33.66;72.35;;
70454;Laerm;57915;47.174;14.680;2024-03-06T04:24:27;57.32;33.63;67.97;;
70454;Laerm;57915;47.174;14.680;2024-03-06T04:25:29;41.62;34.28;52.56;;
70454;Laerm;57915;47.174;14.680;2024-03-06T04:26:29;56.81;34.81;67.88;;
70454;Laerm;57915;47.174;14.680;2024-03-06T04:27:30;62.26;49.38;70.14;;
70454;Laerm;57915;47.174;14.680;2024-03-06T04:28:31;49.42;44.76;65.39;;
70454;Laerm;57915;47.174;14.680;2024-03-06T04:29:32;54.89;39.14;67.12;;
70454;Laerm;57915;47.174;14.680;2024-03-06T04:30:32;61.47;38.21;72.41;;
70454;Laerm;57915;47.174;14.680;2024-03-06T04:31:34;58.09;39.49;69.21;;
70454;Laerm;57915;47.174;14.680;2024-03-06T04:32:35;62.51;45.65;72.04;;
70454;Laerm;57915;47.174;14.680;2024-03-06T04:33:36;61.03;34.34;75.26;;
70454;Laerm;57915;47.174;14.680;2024-03-06T04:34:37;62.04;34.58;70.83;;
70454;Laerm;57915;47.174;14.680;2024-03-06T04:35:38;58.65;35.07;69.94;;
70454;Laerm;57915;47.174;14.680;2024-03-06T04:36:39;57.55;35.81;68.93;;
70454;Laerm;57915;47.174;14.680;2024-03-06T04:37:40;64.20;38.26;74.77;;
70454;Laerm;57915;47.174;14.680;2024-03-06T04:38:43;56.05;35.39;68.41;;
70454;Laerm;57915;47.174;14.680;2024-03-06T04:39:44;59.14;35.45;70.24;;
70454;Laerm;57915;47.174;14.680;2024-03-06T04:40:45;58.71;35.53;66.95;;
70454;Laerm;57915;47.174;14.680;2024-03-06T04:41:46;57.64;33.84;71.16;;
70454;Laerm;57915;47.174;14.680;2024-03-06T04:42:47;64.53;35.85;72.19;;
70454;Laerm;57915;47.174;14.680;2024-03-06T04:43:48;60.29;36.18;71.29;;
70454;Laerm;57915;47.174;14.680;2024-03-06T04:44:50;54.43;35.43;68.68;;
70454;Laerm;57915;47.174;14.680;2024-03-06T04:45:52;63.95;40.74;73.44;;
70454;Laerm;57915;47.174;14.680;2024-03-06T04:46:52;55.32;35.08;67.29;;
70454;Laerm;57915;47.174;14.680;2024-03-06T04:47:53;59.41;37.28;69.95;;
70454;Laerm;57915;47.174;14.680;2024-03-06T04:48:54;60.56;39.74;71.71;;
70454;Laerm;57915;47.174;14.680;2024-03-06T04:49:54;60.81;36.25;73.39;;
70454;Laerm;57915;47.174;14.680;2024-03-06T04:50:55;60.81;34.62;70.02;;
70454;Laerm;57915;47.174;14.680;2024-03-06T04:51:56;60.64;35.32;70.43;;
70454;Laerm;57915;47.174;14.680;2024-03-06T04:52:57;57.12;36.32;68.52;;
70454;Laerm;57915;47.174;14.680;2024-03-06T04:54:00;61.72;37.04;71.22;;
70454;Laerm;57915;47.174;14.680;2024-03-06T04:55:00;61.16;33.40;70.24;;
70454;Laerm;57915;47.174;14.680;2024-03-06T04:56:03;40.29;33.13;55.21;;
70454;Laerm;57915;47.174;14.680;2024-03-06T04:57:04;56.85;34.56;67.72;;
70454;Laerm;57915;47.174;14.680;2024-03-06T04:58:05;57.80;35.31;71.23;;
70454;Laerm;57915;47.174;14.680;2024-03-06T04:59:06;56.55;36.02;66.33;;
70454;Laerm;57915;47.174;14.680;2024-03-06T05:00:07;59.49;37.40;70.70;;
70454;Laerm;57915;47.174;14.680;2024-03-06T05:01:09;62.77;35.53;72.51;;
70454;Laerm;57915;47.174;14.680;2024-03-06T05:02:09;57.08;35.66;69.41;;
70454;Laerm;57915;47.174;14.680;2024-03-06T05:03:10;54.05;33.98;67.40;;
70454;Laerm;57915;47.174;14.680;2024-03-06T05:04:11;59.74;34.04;70.76;;
70454;Laerm;57915;47.174;14.680;2024-03-06T05:05:11;58.30;32.77;69.09;;
70454;Laerm;57915;47.174;14.680;2024-03-06T05:06:13;58.38;31.83;70.91;;
70454;Laerm;57915;47.174;14.680;2024-03-06T05:07:13;39.04;31.71;51.79;;
70454;Laerm;57915;47.174;14.680;2024-03-06T05:08:15;58.25;32.31;69.84;;
70454;Laerm;57915;47.174;14.680;2024-03-06T05:09:17;60.70;32.81;71.88;;
70454;Laerm;57915;47.174;14.680;2024-03-06T05:10:18;57.84;32.69;68.99;;
70454;Laerm;57915;47.174;14.680;2024-03-06T05:11:18;58.24;34.69;70.63;;
70454;Laerm;57915;47.174;14.680;2024-03-06T05:12:20;62.73;42.33;71.35;;
70454;Laerm;57915;47.174;14.680;2024-03-06T05:13:20;59.82;33.21;69.67;;
70454;Laerm;57915;47.174;14.680;2024-03-06T05:14:22;58.98;34.49;70.78;;
70454;Laerm;57915;47.174;14.680;2024-03-06T05:15:22;58.89;31.56;73.67;;
70454;Laerm;57915;47.174;14.680;2024-03-06T05:16:24;50.38;31.06;61.74;;
70454;Laerm;57915;47.174;14.680;2024-03-06T05:17:24;60.89;35.15;70.76;;
70454;Laerm;57915;47.174;14.680;2024-03-06T05:18:26;56.16;32.55;67.97;;
70454;Laerm;57915;47.174;14.680;2024-03-06T05:19:26;55.20;35.55;68.15;;
70454;Laerm;57915;47.174;14.680;2024-03-06T05:20:31;57.28;39.66;67.86;;
70454;Laerm;57915;47.174;14.680;2024-03-06T05:21:32;63.80;40.97;75.71;;
70454;Laerm;57915;47.174;14.680;2024-03-06T05:22:33;60.52;37.38;71.83;;
70454;Laerm;57915;47.174;14.680;2024-03-06T05:23:34;58.47;36.14;68.59;;
70454;Laerm;57915;47.174;14.680;2024-03-06T05:24:36;55.99;32.71;68.89;;
70454;Laerm;57915;47.174;14.680;2024-03-06T05:25:38;63.92;42.36;73.26;;
70454;Laerm;57915;47.174;14.680;2024-03-06T05:26:38;60.13;38.76;72.31;;
70454;Laerm;57915;47.174;14.680;2024-03-06T05:27:39;57.46;35.57;70.84;;
70454;Laerm;57915;47.174;14.680;2024-03-06T05:28:40;60.76;38.79;71.56;;
70454;Laerm;57915;47.174;14.680;2024-03-06T05:29:41;59.78;33.93;71.94;;
70454;Laerm;57915;47.174;14.680;2024-03-06T05:30:43;59.91;39.42;69.20;;
70454;Laerm;57915;47.174;14.680;2024-03-06T05:31:43;60.53;39.81;70.52;;
70454;Laerm;57915;47.174;14.680;2024-03-06T05:32:44;64.33;49.27;74.05;;
70454;Laerm;57915;47.174;14.680;2024-03-06T05:33:47;60.04;36.15;70.94;;
70454;Laerm;57915;47.174;14.680;2024-03-06T05:34:47;58.84;36.16;71.93;;
70454;Laerm;57915;47.174;14.680;2024-03-06T05:35:49;57.68;38.99;67.39;;
70454;Laerm;57915;47.174;14.680;2024-03-06T05:36:49;57.27;35.56;70.47;;
70454;Laerm;57915;47.174;14.680;2024-03-06T05:37:51;59.19;38.19;70.25;;